sensor_id;sensor_type;location;lat;lon;timestamp;temperature;humidity
38209;DHT22;24016;52.102;11.584;2023-07-24T00:01:16;18.50;99.90
38209;DHT22;24016;52.102;11.584;2023-07-24T00:03:43;18.50;99.90
38209;DHT22;24016;52.102;11.584;2023-07-24T00:06:09;18.50;99.90
38209;DHT22;24016;52.102;11.584;2023-07-24T00:08:35;18.50;99.90
38209;DHT22;24016;52.102;11.584;2023-07-24T00:11:00;18.50;99.90
38209;DHT22;24016;52.102;11.584;2023-07-24T00:13:28;18.40;99.90
38209;DHT22;24016;52.102;11.584;2023-07-24T00:15:53;18.40;99.90
38209;DHT22;24016;52.102;11.584;2023-07-24T00:18:19;18.40;99.90
38209;DHT22;24016;52.102;11.584;2023-07-24T00:20:44;18.30;99.90
38209;DHT22;24016;52.102;11.584;2023-07-24T00:23:10;18.30;99.90
38209;DHT22;24016;52.102;11.584;2023-07-24T00:25:35;18.30;99.90
38209;DHT22;24016;52.102;11.584;2023-07-24T00:28:01;18.30;99.90
38209;DHT22;24016;52.102;11.584;2023-07-24T00:30:26;18.20;99.90
38209;DHT22;24016;52.102;11.584;2023-07-24T00:32:52;18.10;99.90
38209;DHT22;24016;52.102;11.584;2023-07-24T00:35:17;18.10;99.90
38209;DHT22;24016;52.102;11.584;2023-07-24T00:37:43;18.10;99.90
38209;DHT22;24016;52.102;11.584;2023-07-24T00:40:09;18.00;99.90
38209;DHT22;24016;52.102;11.584;2023-07-24T00:42:34;18.00;99.90
38209;DHT22;24016;52.102;11.584;2023-07-24T00:45:00;17.90;99.90
38209;DHT22;24016;52.102;11.584;2023-07-24T00:47:27;17.80;99.90
38209;DHT22;24016;52.102;11.584;2023-07-24T00:49:53;17.80;99.90
38209;DHT22;24016;52.102;11.584;2023-07-24T00:52:19;17.80;99.90
38209;DHT22;24016;52.102;11.584;2023-07-24T00:54:45;17.80;99.90
38209;DHT22;24016;52.102;11.584;2023-07-24T00:57:12;17.80;99.90
38209;DHT22;24016;52.102;11.584;2023-07-24T00:59:37;17.60;99.90
38209;DHT22;24016;52.102;11.584;2023-07-24T01:02:03;17.90;99.90
38209;DHT22;24016;52.102;11.584;2023-07-24T01:04:29;17.70;99.90
38209;DHT22;24016;52.102;11.584;2023-07-24T01:06:55;17.70;99.90
38209;DHT22;24016;52.102;11.584;2023-07-24T01:09:20;17.60;99.90
38209;DHT22;24016;52.102;11.584;2023-07-24T01:11:50;17.60;99.90
38209;DHT22;24016;52.102;11.584;2023-07-24T01:14:25;17.60;99.90
38209;DHT22;24016;52.102;11.584;2023-07-24T01:16:54;17.50;99.90
38209;DHT22;24016;52.102;11.584;2023-07-24T01:19:44;17.50;99.90
38209;DHT22;24016;52.102;11.584;2023-07-24T01:27:29;17.40;99.90
38209;DHT22;24016;52.102;11.584;2023-07-24T01:29:54;17.30;99.90
38209;DHT22;24016;52.102;11.584;2023-07-24T01:32:20;17.20;99.90
38209;DHT22;24016;52.102;11.584;2023-07-24T01:34:46;17.20;99.90
38209;DHT22;24016;52.102;11.584;2023-07-24T01:37:13;17.20;99.90
38209;DHT22;24016;52.102;11.584;2023-07-24T01:39:40;17.20;99.90
38209;DHT22;24016;52.102;11.584;2023-07-24T01:42:07;17.20;99.90
38209;DHT22;24016;52.102;11.584;2023-07-24T01:44:33;17.20;99.90
38209;DHT22;24016;52.102;11.584;2023-07-24T01:46:58;17.20;99.90
38209;DHT22;24016;52.102;11.584;2023-07-24T01:49:24;17.20;99.90
38209;DHT22;24016;52.102;11.584;2023-07-24T01:51:49;17.20;99.90
38209;DHT22;24016;52.102;11.584;2023-07-24T01:54:15;17.30;99.90
38209;DHT22;24016;52.102;11.584;2023-07-24T01:56:41;17.30;99.90
38209;DHT22;24016;52.102;11.584;2023-07-24T01:59:06;17.30;99.90
38209;DHT22;24016;52.102;11.584;2023-07-24T02:01:32;17.30;99.90
38209;DHT22;24016;52.102;11.584;2023-07-24T02:03:58;17.30;99.90
38209;DHT22;24016;52.102;11.584;2023-07-24T02:06:23;17.30;99.90
38209;DHT22;24016;52.102;11.584;2023-07-24T02:08:49;17.30;99.90
38209;DHT22;24016;52.102;11.584;2023-07-24T02:11:16;17.30;99.90
38209;DHT22;24016;52.102;11.584;2023-07-24T02:13:45;17.40;99.90
38209;DHT22;24016;52.102;11.584;2023-07-24T02:16:11;17.40;99.90
38209;DHT22;24016;52.102;11.584;2023-07-24T02:18:40;17.40;99.90
38209;DHT22;24016;52.102;11.584;2023-07-24T02:21:06;17.50;99.90
38209;DHT22;24016;52.102;11.584;2023-07-24T02:23:31;17.60;99.90
38209;DHT22;24016;52.102;11.584;2023-07-24T02:25:57;17.50;99.90
38209;DHT22;24016;52.102;11.584;2023-07-24T02:28:22;17.50;99.90
38209;DHT22;24016;52.102;11.584;2023-07-24T02:30:48;17.60;99.90
38209;DHT22;24016;52.102;11.584;2023-07-24T02:33:14;17.60;99.90
38209;DHT22;24016;52.102;11.584;2023-07-24T02:35:41;17.60;99.90
38209;DHT22;24016;52.102;11.584;2023-07-24T02:38:07;17.70;99.90
38209;DHT22;24016;52.102;11.584;2023-07-24T02:40:33;17.70;99.90
38209;DHT22;24016;52.102;11.584;2023-07-24T02:42:59;17.80;99.90
38209;DHT22;24016;52.102;11.584;2023-07-24T02:45:25;17.80;99.90
38209;DHT22;24016;52.102;11.584;2023-07-24T02:47:50;17.80;99.90
38209;DHT22;24016;52.102;11.584;2023-07-24T02:50:16;17.90;99.90
38209;DHT22;24016;52.102;11.584;2023-07-24T02:52:41;17.90;99.90
38209;DHT22;24016;52.102;11.584;2023-07-24T02:55:07;17.80;99.90
38209;DHT22;24016;52.102;11.584;2023-07-24T02:57:32;17.90;99.90
38209;DHT22;24016;52.102;11.584;2023-07-24T02:59:58;17.90;99.90
38209;DHT22;24016;52.102;11.584;2023-07-24T03:02:24;17.90;99.90
38209;DHT22;24016;52.102;11.584;2023-07-24T03:04:49;17.90;99.90
38209;DHT22;24016;52.102;11.584;2023-07-24T03:07:15;18.00;99.90
38209;DHT22;24016;52.102;11.584;2023-07-24T03:09:40;17.90;99.90
38209;DHT22;24016;52.102;11.584;2023-07-24T03:12:06;18.00;99.90
38209;DHT22;24016;52.102;11.584;2023-07-24T03:14:32;17.90;99.90
38209;DHT22;24016;52.102;11.584;2023-07-24T03:16:57;17.90;99.90
38209;DHT22;24016;52.102;11.584;2023-07-24T03:19:23;17.90;99.90
38209;DHT22;24016;52.102;11.584;2023-07-24T03:21:48;17.80;99.90
38209;DHT22;24016;52.102;11.584;2023-07-24T03:24:14;17.80;99.90
38209;DHT22;24016;52.102;11.584;2023-07-24T03:26:39;17.70;99.90
38209;DHT22;24016;52.102;11.584;2023-07-24T03:29:05;17.70;99.90
38209;DHT22;24016;52.102;11.584;2023-07-24T03:31:31;17.70;99.90
38209;DHT22;24016;52.102;11.584;2023-07-24T03:33:56;17.70;99.90
38209;DHT22;24016;52.102;11.584;2023-07-24T03:36:23;17.60;99.90
38209;DHT22;24016;52.102;11.584;2023-07-24T03:38:48;17.60;99.90
38209;DHT22;24016;52.102;11.584;2023-07-24T03:41:14;17.60;99.90
38209;DHT22;24016;52.102;11.584;2023-07-24T03:43:39;17.60;99.90
38209;DHT22;24016;52.102;11.584;2023-07-24T03:46:05;17.60;99.90
38209;DHT22;24016;52.102;11.584;2023-07-24T03:48:30;17.60;99.90
38209;DHT22;24016;52.102;11.584;2023-07-24T03:50:59;17.70;99.90
38209;DHT22;24016;52.102;11.584;2023-07-24T03:53:25;17.80;99.90
38209;DHT22;24016;52.102;11.584;2023-07-24T03:55:51;17.70;99.90
38209;DHT22;24016;52.102;11.584;2023-07-24T03:58:16;17.80;99.90
38209;DHT22;24016;52.102;11.584;2023-07-24T04:00:42;17.80;99.90
38209;DHT22;24016;52.102;11.584;2023-07-24T04:03:08;17.80;99.90
38209;DHT22;24016;52.102;11.584;2023-07-24T04:05:35;17.90;99.90
38209;DHT22;24016;52.102;11.584;2023-07-24T04:08:01;17.90;99.90
38209;DHT22;24016;52.102;11.584;2023-07-24T04:10:26;17.90;99.90
38209;DHT22;24016;52.102;11.584;2023-07-24T04:12:52;17.90;99.90
38209;DHT22;24016;52.102;11.584;2023-07-24T04:15:18;17.90;99.90
38209;DHT22;24016;52.102;11.584;2023-07-24T04:17:43;17.90;99.90
38209;DHT22;24016;52.102;11.584;2023-07-24T04:20:09;17.90;99.90
38209;DHT22;24016;52.102;11.584;2023-07-24T04:22:35;17.90;99.90
38209;DHT22;24016;52.102;11.584;2023-07-24T04:25:01;18.00;99.90
38209;DHT22;24016;52.102;11.584;2023-07-24T04:27:26;18.00;99.90
38209;DHT22;24016;52.102;11.584;2023-07-24T04:29:52;18.00;99.90
38209;DHT22;24016;52.102;11.584;2023-07-24T04:32:18;18.00;99.90
38209;DHT22;24016;52.102;11.584;2023-07-24T04:34:43;18.00;99.90
38209;DHT22;24016;52.102;11.584;2023-07-24T04:37:09;18.10;99.90
38209;DHT22;24016;52.102;11.584;2023-07-24T04:39:35;18.10;99.90
38209;DHT22;24016;52.102;11.584;2023-07-24T04:42:00;18.10;99.90
38209;DHT22;24016;52.102;11.584;2023-07-24T04:44:26;18.10;99.90
38209;DHT22;24016;52.102;11.584;2023-07-24T04:46:51;18.20;99.90
38209;DHT22;24016;52.102;11.584;2023-07-24T04:49:17;18.10;99.90
38209;DHT22;24016;52.102;11.584;2023-07-24T04:51:42;18.20;99.90
38209;DHT22;24016;52.102;11.584;2023-07-24T04:54:08;18.20;99.90
38209;DHT22;24016;52.102;11.584;2023-07-24T04:56:34;18.30;99.90
38209;DHT22;24016;52.102;11.584;2023-07-24T04:58:59;18.40;99.90
38209;DHT22;24016;52.102;11.584;2023-07-24T05:01:25;18.40;99.90
38209;DHT22;24016;52.102;11.584;2023-07-24T05:03:50;18.50;99.90
38209;DHT22;24016;52.102;11.584;2023-07-24T05:06:19;18.50;99.90
38209;DHT22;24016;52.102;11.584;2023-07-24T05:08:44;18.40;99.90
38209;DHT22;24016;52.102;11.584;2023-07-24T05:11:10;18.40;99.90
38209;DHT22;24016;52.102;11.584;2023-07-24T05:13:36;18.30;99.90
38209;DHT22;24016;52.102;11.584;2023-07-24T05:16:01;18.20;99.90
38209;DHT22;24016;52.102;11.584;2023-07-24T05:18:27;18.10;99.90
38209;DHT22;24016;52.102;11.584;2023-07-24T05:20:52;18.00;99.90
38209;DHT22;24016;52.102;11.584;2023-07-24T05:23:18;17.90;99.90
38209;DHT22;24016;52.102;11.584;2023-07-24T05:25:44;17.90;99.90
38209;DHT22;24016;52.102;11.584;2023-07-24T05:28:10;17.80;99.90
38209;DHT22;24016;52.102;11.584;2023-07-24T05:30:36;17.80;99.90
38209;DHT22;24016;52.102;11.584;2023-07-24T05:33:01;17.90;99.90
38209;DHT22;24016;52.102;11.584;2023-07-24T05:35:27;17.90;99.90
38209;DHT22;24016;52.102;11.584;2023-07-24T05:37:53;18.10;99.90
38209;DHT22;24016;52.102;11.584;2023-07-24T05:40:18;18.10;99.90
38209;DHT22;24016;52.102;11.584;2023-07-24T05:42:44;18.20;99.90
38209;DHT22;24016;52.102;11.584;2023-07-24T05:45:10;18.30;99.90
38209;DHT22;24016;52.102;11.584;2023-07-24T05:47:40;18.40;99.90
38209;DHT22;24016;52.102;11.584;2023-07-24T05:50:06;18.50;99.90
38209;DHT22;24016;52.102;11.584;2023-07-24T05:52:31;18.60;99.90
38209;DHT22;24016;52.102;11.584;2023-07-24T05:54:57;18.80;99.90
38209;DHT22;24016;52.102;11.584;2023-07-24T05:57:22;19.00;99.90
38209;DHT22;24016;52.102;11.584;2023-07-24T06:03:10;19.30;99.90
38209;DHT22;24016;52.102;11.584;2023-07-24T06:05:36;19.50;99.90
38209;DHT22;24016;52.102;11.584;2023-07-24T06:08:01;19.70;99.90
38209;DHT22;24016;52.102;11.584;2023-07-24T06:10:27;20.00;99.90
38209;DHT22;24016;52.102;11.584;2023-07-24T06:12:52;20.30;99.90
38209;DHT22;24016;52.102;11.584;2023-07-24T06:15:18;20.60;99.90
38209;DHT22;24016;52.102;11.584;2023-07-24T06:17:43;20.90;99.90
38209;DHT22;24016;52.102;11.584;2023-07-24T06:20:09;21.20;99.90
38209;DHT22;24016;52.102;11.584;2023-07-24T06:22:35;21.40;99.90
38209;DHT22;24016;52.102;11.584;2023-07-24T06:25:00;21.50;99.90
38209;DHT22;24016;52.102;11.584;2023-07-24T06:27:26;21.40;99.90
38209;DHT22;24016;52.102;11.584;2023-07-24T06:29:51;21.40;99.90
38209;DHT22;24016;52.102;11.584;2023-07-24T06:32:17;21.40;99.90
38209;DHT22;24016;52.102;11.584;2023-07-24T06:34:43;21.50;99.90
38209;DHT22;24016;52.102;11.584;2023-07-24T06:37:08;21.60;99.90
38209;DHT22;24016;52.102;11.584;2023-07-24T06:39:34;21.80;99.90
38209;DHT22;24016;52.102;11.584;2023-07-24T06:41:59;21.90;99.90
38209;DHT22;24016;52.102;11.584;2023-07-24T06:44:25;22.10;99.90
38209;DHT22;24016;52.102;11.584;2023-07-24T06:46:51;22.30;99.90
38209;DHT22;24016;52.102;11.584;2023-07-24T06:49:16;22.40;99.90
38209;DHT22;24016;52.102;11.584;2023-07-24T06:51:42;22.40;99.90
38209;DHT22;24016;52.102;11.584;2023-07-24T06:54:07;22.30;99.90
38209;DHT22;24016;52.102;11.584;2023-07-24T06:56:33;22.10;99.90
38209;DHT22;24016;52.102;11.584;2023-07-24T06:58:58;22.00;99.90
38209;DHT22;24016;52.102;11.584;2023-07-24T07:01:24;21.80;99.90
38209;DHT22;24016;52.102;11.584;2023-07-24T07:03:50;21.70;99.90
38209;DHT22;24016;52.102;11.584;2023-07-24T07:06:15;21.60;99.90
38209;DHT22;24016;52.102;11.584;2023-07-24T07:08:41;21.60;99.90
38209;DHT22;24016;52.102;11.584;2023-07-24T07:11:07;21.60;99.90
38209;DHT22;24016;52.102;11.584;2023-07-24T07:13:32;21.70;99.90
38209;DHT22;24016;52.102;11.584;2023-07-24T07:15:58;21.70;99.90
38209;DHT22;24016;52.102;11.584;2023-07-24T07:18:23;21.90;99.90
38209;DHT22;24016;52.102;11.584;2023-07-24T07:20:50;21.90;99.90
38209;DHT22;24016;52.102;11.584;2023-07-24T07:23:16;22.00;99.90
38209;DHT22;24016;52.102;11.584;2023-07-24T07:25:43;22.20;99.90
38209;DHT22;24016;52.102;11.584;2023-07-24T07:28:13;22.30;99.90
38209;DHT22;24016;52.102;11.584;2023-07-24T07:30:40;22.30;99.90
38209;DHT22;24016;52.102;11.584;2023-07-24T07:33:06;22.30;99.90
38209;DHT22;24016;52.102;11.584;2023-07-24T07:35:35;22.30;99.90
38209;DHT22;24016;52.102;11.584;2023-07-24T07:38:02;22.20;99.90
38209;DHT22;24016;52.102;11.584;2023-07-24T07:40:28;21.90;99.90
38209;DHT22;24016;52.102;11.584;2023-07-24T07:42:54;21.90;99.90
38209;DHT22;24016;52.102;11.584;2023-07-24T07:45:20;22.10;99.90
38209;DHT22;24016;52.102;11.584;2023-07-24T07:47:46;22.10;99.90
38209;DHT22;24016;52.102;11.584;2023-07-24T07:50:11;22.20;99.90
38209;DHT22;24016;52.102;11.584;2023-07-24T07:52:37;22.30;99.90
38209;DHT22;24016;52.102;11.584;2023-07-24T07:55:03;22.40;99.90
38209;DHT22;24016;52.102;11.584;2023-07-24T07:57:29;22.60;99.90
38209;DHT22;24016;52.102;11.584;2023-07-24T07:59:54;22.80;99.90
38209;DHT22;24016;52.102;11.584;2023-07-24T08:02:20;22.70;99.90
38209;DHT22;24016;52.102;11.584;2023-07-24T08:04:45;22.80;99.90
38209;DHT22;24016;52.102;11.584;2023-07-24T08:07:11;22.80;99.90
38209;DHT22;24016;52.102;11.584;2023-07-24T08:09:36;23.30;99.90
38209;DHT22;24016;52.102;11.584;2023-07-24T08:12:04;24.00;99.90
38209;DHT22;24016;52.102;11.584;2023-07-24T08:14:30;24.70;99.90
38209;DHT22;24016;52.102;11.584;2023-07-24T08:16:55;25.20;99.90
38209;DHT22;24016;52.102;11.584;2023-07-24T08:19:21;25.60;99.90
38209;DHT22;24016;52.102;11.584;2023-07-24T08:21:47;25.70;99.90
38209;DHT22;24016;52.102;11.584;2023-07-24T08:24:12;26.00;99.90
38209;DHT22;24016;52.102;11.584;2023-07-24T08:26:38;26.50;99.90
38209;DHT22;24016;52.102;11.584;2023-07-24T08:29:04;27.00;99.90
38209;DHT22;24016;52.102;11.584;2023-07-24T08:31:30;27.50;99.90
38209;DHT22;24016;52.102;11.584;2023-07-24T08:33:56;27.80;99.90
38209;DHT22;24016;52.102;11.584;2023-07-24T08:36:21;27.30;99.90
38209;DHT22;24016;52.102;11.584;2023-07-24T08:38:47;27.60;99.90
38209;DHT22;24016;52.102;11.584;2023-07-24T08:41:14;28.10;99.90
38209;DHT22;24016;52.102;11.584;2023-07-24T08:43:41;28.90;99.90
38209;DHT22;24016;52.102;11.584;2023-07-24T08:46:08;29.00;99.90
38209;DHT22;24016;52.102;11.584;2023-07-24T08:48:36;29.10;99.90
38209;DHT22;24016;52.102;11.584;2023-07-24T08:51:02;29.00;99.90
38209;DHT22;24016;52.102;11.584;2023-07-24T08:53:29;28.80;99.90
38209;DHT22;24016;52.102;11.584;2023-07-24T08:55:56;28.90;99.90
38209;DHT22;24016;52.102;11.584;2023-07-24T08:58:21;28.80;99.90
38209;DHT22;24016;52.102;11.584;2023-07-24T09:00:47;29.00;99.90
38209;DHT22;24016;52.102;11.584;2023-07-24T09:03:13;29.00;99.90
38209;DHT22;24016;52.102;11.584;2023-07-24T09:05:38;29.10;99.90
38209;DHT22;24016;52.102;11.584;2023-07-24T09:08:04;29.40;99.90
38209;DHT22;24016;52.102;11.584;2023-07-24T09:10:30;29.70;99.90
38209;DHT22;24016;52.102;11.584;2023-07-24T09:12:55;29.80;99.90
38209;DHT22;24016;52.102;11.584;2023-07-24T09:15:21;30.00;99.90
38209;DHT22;24016;52.102;11.584;2023-07-24T09:17:51;30.10;99.90
38209;DHT22;24016;52.102;11.584;2023-07-24T09:20:19;30.60;99.50
38209;DHT22;24016;52.102;11.584;2023-07-24T09:22:52;30.70;98.80
38209;DHT22;24016;52.102;11.584;2023-07-24T09:25:18;30.70;97.40
38209;DHT22;24016;52.102;11.584;2023-07-24T09:27:44;30.80;97.60
38209;DHT22;24016;52.102;11.584;2023-07-24T09:30:14;30.60;97.10
38209;DHT22;24016;52.102;11.584;2023-07-24T09:32:40;30.40;97.90
38209;DHT22;24016;52.102;11.584;2023-07-24T09:35:26;30.70;97.00
38209;DHT22;24016;52.102;11.584;2023-07-24T09:40:43;28.80;97.70
38209;DHT22;24016;52.102;11.584;2023-07-24T09:43:26;27.90;98.50
38209;DHT22;24016;52.102;11.584;2023-07-24T09:45:53;27.20;99.10
38209;DHT22;24016;52.102;11.584;2023-07-24T09:48:19;26.80;99.60
38209;DHT22;24016;52.102;11.584;2023-07-24T09:50:47;26.60;99.90
38209;DHT22;24016;52.102;11.584;2023-07-24T09:53:24;26.70;99.90
38209;DHT22;24016;52.102;11.584;2023-07-24T09:56:00;26.80;99.90
38209;DHT22;24016;52.102;11.584;2023-07-24T09:58:26;26.90;99.90
38209;DHT22;24016;52.102;11.584;2023-07-24T10:00:53;27.40;99.60
38209;DHT22;24016;52.102;11.584;2023-07-24T10:03:19;27.60;99.60
38209;DHT22;24016;52.102;11.584;2023-07-24T10:05:46;27.70;98.80
38209;DHT22;24016;52.102;11.584;2023-07-24T10:08:16;27.80;98.50
38209;DHT22;24016;52.102;11.584;2023-07-24T10:10:42;28.00;99.30
38209;DHT22;24016;52.102;11.584;2023-07-24T10:13:09;28.30;98.80
38209;DHT22;24016;52.102;11.584;2023-07-24T10:15:37;28.40;98.10
38209;DHT22;24016;52.102;11.584;2023-07-24T10:18:04;27.90;98.50
38209;DHT22;24016;52.102;11.584;2023-07-24T10:20:39;27.30;98.20
38209;DHT22;24016;52.102;11.584;2023-07-24T10:23:06;26.90;98.60
38209;DHT22;24016;52.102;11.584;2023-07-24T10:25:33;26.60;99.00
38209;DHT22;24016;52.102;11.584;2023-07-24T10:28:06;26.30;99.20
38209;DHT22;24016;52.102;11.584;2023-07-24T10:30:39;25.90;99.90
38209;DHT22;24016;52.102;11.584;2023-07-24T10:33:21;25.60;99.90
38209;DHT22;24016;52.102;11.584;2023-07-24T10:35:54;25.40;99.90
38209;DHT22;24016;52.102;11.584;2023-07-24T10:38:20;25.10;99.90
38209;DHT22;24016;52.102;11.584;2023-07-24T10:41:02;25.80;99.90
38209;DHT22;24016;52.102;11.584;2023-07-24T10:43:28;26.80;99.90
38209;DHT22;24016;52.102;11.584;2023-07-24T10:45:54;27.00;99.90
38209;DHT22;24016;52.102;11.584;2023-07-24T10:48:22;27.20;99.90
38209;DHT22;24016;52.102;11.584;2023-07-24T10:50:49;27.90;99.90
38209;DHT22;24016;52.102;11.584;2023-07-24T10:53:16;28.90;99.90
38209;DHT22;24016;52.102;11.584;2023-07-24T10:55:46;29.70;99.00
38209;DHT22;24016;52.102;11.584;2023-07-24T10:58:15;30.20;99.10
38209;DHT22;24016;52.102;11.584;2023-07-24T11:00:44;30.60;97.70
38209;DHT22;24016;52.102;11.584;2023-07-24T11:03:11;30.80;98.30
38209;DHT22;24016;52.102;11.584;2023-07-24T11:05:41;31.30;97.70
38209;DHT22;24016;52.102;11.584;2023-07-24T11:08:15;31.80;96.90
38209;DHT22;24016;52.102;11.584;2023-07-24T11:10:50;31.60;97.30
38209;DHT22;24016;52.102;11.584;2023-07-24T11:13:18;31.00;97.80
38209;DHT22;24016;52.102;11.584;2023-07-24T11:15:44;30.60;97.40
38209;DHT22;24016;52.102;11.584;2023-07-24T11:18:10;29.70;98.10
38209;DHT22;24016;52.102;11.584;2023-07-24T11:20:47;28.90;98.90
38209;DHT22;24016;52.102;11.584;2023-07-24T11:23:14;28.40;99.70
38209;DHT22;24016;52.102;11.584;2023-07-24T11:25:40;28.40;99.90
38209;DHT22;24016;52.102;11.584;2023-07-24T11:28:07;28.50;99.80
38209;DHT22;24016;52.102;11.584;2023-07-24T11:30:33;29.00;99.90
38209;DHT22;24016;52.102;11.584;2023-07-24T11:33:00;30.20;99.00
38209;DHT22;24016;52.102;11.584;2023-07-24T11:35:27;31.10;98.30
38209;DHT22;24016;52.102;11.584;2023-07-24T11:37:53;31.40;97.00
38209;DHT22;24016;52.102;11.584;2023-07-24T11:40:19;30.90;98.30
38209;DHT22;24016;52.102;11.584;2023-07-24T11:42:47;30.60;97.10
38209;DHT22;24016;52.102;11.584;2023-07-24T11:45:13;30.60;97.30
38209;DHT22;24016;52.102;11.584;2023-07-24T11:47:43;30.70;97.10
38209;DHT22;24016;52.102;11.584;2023-07-24T11:50:08;30.90;97.70
38209;DHT22;24016;52.102;11.584;2023-07-24T11:52:39;31.30;97.50
38209;DHT22;24016;52.102;11.584;2023-07-24T11:55:05;32.30;96.90
38209;DHT22;24016;52.102;11.584;2023-07-24T11:57:31;33.10;96.40
38209;DHT22;24016;52.102;11.584;2023-07-24T11:59:56;33.90;94.70
38209;DHT22;24016;52.102;11.584;2023-07-24T12:02:28;33.80;94.40
38209;DHT22;24016;52.102;11.584;2023-07-24T12:04:55;32.90;94.50
38209;DHT22;24016;52.102;11.584;2023-07-24T12:07:33;32.30;95.00
38209;DHT22;24016;52.102;11.584;2023-07-24T12:10:03;31.20;95.30
38209;DHT22;24016;52.102;11.584;2023-07-24T12:12:42;30.80;96.00
38209;DHT22;24016;52.102;11.584;2023-07-24T12:15:08;30.60;95.60
38209;DHT22;24016;52.102;11.584;2023-07-24T12:17:33;30.90;95.60
38209;DHT22;24016;52.102;11.584;2023-07-24T12:19:59;31.20;96.30
38209;DHT22;24016;52.102;11.584;2023-07-24T12:22:24;31.20;95.50
38209;DHT22;24016;52.102;11.584;2023-07-24T12:24:50;30.60;95.40
38209;DHT22;24016;52.102;11.584;2023-07-24T12:27:16;30.20;96.00
38209;DHT22;24016;52.102;11.584;2023-07-24T12:29:41;30.30;96.30
38209;DHT22;24016;52.102;11.584;2023-07-24T12:32:07;30.10;95.20
38209;DHT22;24016;52.102;11.584;2023-07-24T12:34:32;29.70;96.10
38209;DHT22;24016;52.102;11.584;2023-07-24T12:36:58;29.10;95.30
38209;DHT22;24016;52.102;11.584;2023-07-24T12:39:23;28.50;95.40
38209;DHT22;24016;52.102;11.584;2023-07-24T12:41:49;28.10;95.90
38209;DHT22;24016;52.102;11.584;2023-07-24T12:44:17;27.70;96.90
38209;DHT22;24016;52.102;11.584;2023-07-24T12:46:43;27.40;97.00
38209;DHT22;24016;52.102;11.584;2023-07-24T12:49:08;27.20;97.60
38209;DHT22;24016;52.102;11.584;2023-07-24T12:51:34;27.00;97.70
38209;DHT22;24016;52.102;11.584;2023-07-24T12:54:00;26.80;98.50
38209;DHT22;24016;52.102;11.584;2023-07-24T12:56:25;26.60;98.80
38209;DHT22;24016;52.102;11.584;2023-07-24T12:58:51;26.40;98.90
38209;DHT22;24016;52.102;11.584;2023-07-24T13:01:16;26.50;99.90
38209;DHT22;24016;52.102;11.584;2023-07-24T13:03:42;26.40;98.90
38209;DHT22;24016;52.102;11.584;2023-07-24T13:06:07;26.20;99.40
38209;DHT22;24016;52.102;11.584;2023-07-24T13:08:33;26.10;99.90
38209;DHT22;24016;52.102;11.584;2023-07-24T13:10:58;26.00;99.90
38209;DHT22;24016;52.102;11.584;2023-07-24T13:13:24;26.00;99.90
38209;DHT22;24016;52.102;11.584;2023-07-24T13:15:50;26.00;99.90
38209;DHT22;24016;52.102;11.584;2023-07-24T13:18:16;26.10;99.90
38209;DHT22;24016;52.102;11.584;2023-07-24T13:20:42;26.30;99.90
38209;DHT22;24016;52.102;11.584;2023-07-24T13:23:08;26.40;99.90
38209;DHT22;24016;52.102;11.584;2023-07-24T13:25:33;27.40;99.80
38209;DHT22;24016;52.102;11.584;2023-07-24T13:27:59;28.30;99.50
38209;DHT22;24016;52.102;11.584;2023-07-24T13:30:24;29.10;98.50
38209;DHT22;24016;52.102;11.584;2023-07-24T13:32:50;29.30;97.50
38209;DHT22;24016;52.102;11.584;2023-07-24T13:35:16;29.50;98.30
38209;DHT22;24016;52.102;11.584;2023-07-24T13:37:42;29.10;97.50
38209;DHT22;24016;52.102;11.584;2023-07-24T13:40:08;28.80;97.60
38209;DHT22;24016;52.102;11.584;2023-07-24T13:42:35;29.00;97.40
38209;DHT22;24016;52.102;11.584;2023-07-24T13:45:00;29.20;97.50
38209;DHT22;24016;52.102;11.584;2023-07-24T13:47:26;28.90;96.40
38209;DHT22;24016;52.102;11.584;2023-07-24T13:49:51;28.40;96.40
38209;DHT22;24016;52.102;11.584;2023-07-24T13:52:17;28.50;96.60
38209;DHT22;24016;52.102;11.584;2023-07-24T13:54:43;28.70;96.90
38209;DHT22;24016;52.102;11.584;2023-07-24T13:57:08;28.80;95.70
38209;DHT22;24016;52.102;11.584;2023-07-24T13:59:35;28.60;96.40
38209;DHT22;24016;52.102;11.584;2023-07-24T14:02:01;28.50;96.60
38209;DHT22;24016;52.102;11.584;2023-07-24T14:04:26;28.50;96.60
38209;DHT22;24016;52.102;11.584;2023-07-24T14:06:52;28.90;97.60
38209;DHT22;24016;52.102;11.584;2023-07-24T14:09:18;29.10;95.60
38209;DHT22;24016;52.102;11.584;2023-07-24T14:11:43;29.20;95.90
38209;DHT22;24016;52.102;11.584;2023-07-24T14:14:09;28.90;95.60
38209;DHT22;24016;52.102;11.584;2023-07-24T14:16:34;28.60;95.90
38209;DHT22;24016;52.102;11.584;2023-07-24T14:19:00;28.60;96.70
38209;DHT22;24016;52.102;11.584;2023-07-24T14:21:25;28.40;95.90
38209;DHT22;24016;52.102;11.584;2023-07-24T14:23:51;28.20;95.60
38209;DHT22;24016;52.102;11.584;2023-07-24T14:26:17;27.90;96.30
38209;DHT22;24016;52.102;11.584;2023-07-24T14:28:42;27.60;96.10
38209;DHT22;24016;52.102;11.584;2023-07-24T14:31:08;27.50;96.50
38209;DHT22;24016;52.102;11.584;2023-07-24T14:33:33;27.40;96.60
38209;DHT22;24016;52.102;11.584;2023-07-24T14:35:59;27.20;96.10
38209;DHT22;24016;52.102;11.584;2023-07-24T14:38:24;27.10;95.60
38209;DHT22;24016;52.102;11.584;2023-07-24T14:40:50;27.00;96.00
38209;DHT22;24016;52.102;11.584;2023-07-24T14:43:15;27.10;95.70
38209;DHT22;24016;52.102;11.584;2023-07-24T14:45:41;27.40;96.60
38209;DHT22;24016;52.102;11.584;2023-07-24T14:48:06;27.70;95.50
38209;DHT22;24016;52.102;11.584;2023-07-24T14:50:35;27.60;95.50
38209;DHT22;24016;52.102;11.584;2023-07-24T14:53:00;27.20;95.80
38209;DHT22;24016;52.102;11.584;2023-07-24T14:55:26;27.00;96.00
38209;DHT22;24016;52.102;11.584;2023-07-24T14:57:52;26.90;96.30
38209;DHT22;24016;52.102;11.584;2023-07-24T15:00:17;26.70;95.90
38209;DHT22;24016;52.102;11.584;2023-07-24T15:02:43;26.60;96.20
38209;DHT22;24016;52.102;11.584;2023-07-24T15:05:09;26.50;96.70
38209;DHT22;24016;52.102;11.584;2023-07-24T15:07:34;26.50;96.90
38209;DHT22;24016;52.102;11.584;2023-07-24T15:10:00;26.70;96.60
38209;DHT22;24016;52.102;11.584;2023-07-24T15:12:25;26.90;96.30
38209;DHT22;24016;52.102;11.584;2023-07-24T15:14:51;27.00;96.40
38209;DHT22;24016;52.102;11.584;2023-07-24T15:17:17;26.90;96.40
38209;DHT22;24016;52.102;11.584;2023-07-24T15:19:43;26.80;96.60
38209;DHT22;24016;52.102;11.584;2023-07-24T15:22:09;26.70;96.40